createdAt,value
2022-12-18T00:01:18.136Z,9.43
2022-12-18T00:03:45.472Z,8.60
2022-12-18T00:06:12.873Z,8.00
2022-12-18T00:08:39.594Z,8.37
2022-12-18T00:11:11.434Z,8.03
2022-12-18T00:13:38.290Z,7.60
2022-12-18T00:16:10.529Z,8.03
2022-12-18T00:18:38.179Z,7.47
2022-12-18T00:21:07.729Z,7.97
2022-12-18T00:23:36.034Z,7.33
2022-12-18T00:26:04.929Z,6.87
2022-12-18T00:28:31.561Z,6.63
2022-12-18T00:31:06.583Z,7.33
2022-12-18T00:33:33.205Z,6.43
2022-12-18T00:36:04.354Z,6.10
2022-12-18T00:38:31.071Z,6.20
2022-12-18T00:40:57.540Z,6.30
2022-12-18T00:43:24.202Z,6.00
2022-12-18T00:45:50.859Z,6.67
2022-12-18T00:48:17.376Z,6.50
2022-12-18T00:50:43.913Z,5.63
2022-12-18T00:53:13.405Z,6.03
2022-12-18T00:55:43.151Z,5.70
2022-12-18T00:58:11.002Z,6.00
2022-12-18T01:00:39.049Z,5.70
2022-12-18T01:03:06.691Z,6.40
2022-12-18T01:05:33.758Z,5.97
2022-12-18T01:08:00.852Z,5.83
2022-12-18T01:10:27.659Z,5.70
2022-12-18T01:12:54.179Z,6.07
2022-12-18T01:15:21.325Z,5.17
2022-12-18T01:17:47.816Z,5.77
2022-12-18T01:20:14.394Z,6.37
2022-12-18T01:22:41.052Z,5.30
2022-12-18T01:25:08.238Z,6.20
2022-12-18T01:27:35.318Z,5.57
2022-12-18T01:30:01.845Z,5.97
2022-12-18T01:32:31.855Z,6.00
2022-12-18T01:34:58.473Z,6.13
2022-12-18T01:37:25.420Z,5.63
2022-12-18T01:39:55.377Z,5.67
2022-12-18T01:42:22.542Z,5.37
2022-12-18T01:45:01.152Z,6.67
2022-12-18T01:47:46.193Z,5.53
2022-12-18T01:50:14.885Z,6.27
2022-12-18T01:52:49.932Z,6.23
2022-12-18T01:55:21.502Z,5.63
2022-12-18T01:57:49.200Z,5.50
2022-12-18T02:00:19.161Z,6.07
2022-12-18T02:02:47.179Z,6.17
2022-12-18T02:05:17.576Z,5.40
2022-12-18T02:07:48.009Z,5.57
2022-12-18T02:10:25.441Z,5.50
2022-12-18T02:13:15.990Z,5.07
2022-12-18T02:16:12.647Z,5.50
2022-12-18T02:18:45.453Z,5.37
2022-12-18T02:21:33.595Z,5.90
2022-12-18T02:24:12.464Z,5.23
2022-12-18T02:26:46.547Z,5.37
2022-12-18T02:29:17.597Z,5.90
2022-12-18T02:31:48.857Z,6.13
2022-12-18T02:34:17.441Z,5.70
2022-12-18T02:36:46.261Z,5.90
2022-12-18T02:39:15.856Z,5.47
2022-12-18T02:41:43.148Z,6.13
2022-12-18T02:44:13.024Z,5.53
2022-12-18T02:46:44.434Z,5.37
2022-12-18T02:49:23.054Z,5.83
2022-12-18T02:51:58.788Z,5.90
2022-12-18T02:55:07.419Z,5.80
2022-12-18T02:57:49.403Z,6.90
2022-12-18T03:00:21.292Z,6.03
2022-12-18T03:02:58.359Z,5.80
2022-12-18T03:05:42.895Z,5.43
2022-12-18T03:08:22.040Z,5.23
2022-12-18T03:11:00.700Z,6.00
2022-12-18T03:13:38.014Z,5.77
2022-12-18T03:16:07.455Z,5.83
2022-12-18T03:18:40.203Z,5.80
2022-12-18T03:21:09.041Z,5.80
2022-12-18T03:23:41.520Z,5.93
2022-12-18T03:26:11.289Z,6.23
2022-12-18T03:28:43.387Z,6.50
2022-12-18T03:31:13.469Z,6.40
2022-12-18T03:34:14.390Z,7.20
2022-12-18T03:36:41.228Z,6.37
2022-12-18T03:39:07.923Z,5.60
2022-12-18T03:41:42.286Z,5.97
2022-12-18T03:44:37.070Z,6.17
2022-12-18T03:47:11.046Z,6.23
2022-12-18T03:50:04.415Z,6.33
2022-12-18T03:52:39.293Z,5.53
2022-12-18T03:55:08.314Z,5.47
2022-12-18T03:57:35.103Z,5.60
2022-12-18T04:00:22.061Z,5.93
2022-12-18T04:02:55.261Z,5.50
2022-12-18T04:05:25.555Z,5.67
2022-12-18T04:07:53.423Z,5.50
2022-12-18T04:10:20.031Z,5.53
2022-12-18T04:12:46.530Z,5.50
2022-12-18T04:15:13.931Z,5.30
2022-12-18T04:17:48.295Z,5.03
2022-12-18T04:20:14.735Z,5.17
2022-12-18T04:22:41.194Z,5.43
2022-12-18T04:25:08.175Z,5.70
2022-12-18T04:27:35.069Z,5.17
2022-12-18T04:30:01.956Z,4.60
2022-12-18T04:32:28.465Z,5.70
2022-12-18T04:34:54.910Z,4.73
2022-12-18T04:37:21.362Z,4.87
2022-12-18T04:39:47.898Z,6.00
2022-12-18T04:42:14.345Z,5.07
2022-12-18T04:44:40.787Z,4.83
2022-12-18T04:47:09.233Z,5.47
2022-12-18T04:49:35.684Z,5.27
2022-12-18T04:52:02.281Z,5.20
2022-12-18T04:54:28.850Z,5.73
2022-12-18T04:56:55.300Z,5.33
2022-12-18T04:59:21.847Z,5.40
2022-12-18T05:01:48.695Z,4.93
2022-12-18T05:04:15.386Z,5.03
2022-12-18T05:06:42.004Z,4.60
2022-12-18T05:09:08.874Z,4.83
2022-12-18T05:11:36.172Z,5.83
2022-12-18T05:14:02.678Z,5.03
2022-12-18T05:16:29.315Z,5.60
2022-12-18T05:18:55.919Z,5.43
2022-12-18T05:21:22.486Z,5.80
2022-12-18T05:23:48.982Z,5.30
2022-12-18T05:26:18.387Z,5.40
2022-12-18T05:28:45.370Z,5.00
2022-12-18T05:31:12.328Z,4.63
2022-12-18T05:33:39.431Z,5.60
2022-12-18T05:36:08.641Z,4.83
2022-12-18T05:38:37.853Z,5.03
2022-12-18T05:41:05.166Z,4.73
2022-12-18T05:43:31.813Z,5.27
2022-12-18T05:45:58.596Z,4.97
2022-12-18T05:48:25.058Z,4.70
2022-12-18T05:50:52.007Z,5.73
2022-12-18T05:53:20.557Z,5.50
2022-12-18T05:55:47.799Z,4.97
2022-12-18T05:58:15.544Z,5.47
2022-12-18T06:00:44.672Z,5.00
2022-12-18T06:03:12.272Z,5.67
2022-12-18T06:05:45.289Z,5.10
2022-12-18T06:08:13.212Z,5.20
2022-12-18T06:10:40.739Z,5.00
2022-12-18T06:13:08.008Z,5.00
2022-12-18T06:15:37.841Z,5.13
2022-12-18T06:18:04.547Z,5.00
2022-12-18T06:20:33.629Z,4.60
2022-12-18T06:23:00.490Z,4.63
2022-12-18T06:25:27.174Z,4.97
2022-12-18T06:27:53.659Z,4.70
2022-12-18T06:30:20.608Z,4.83
2022-12-18T06:32:51.796Z,5.10
2022-12-18T06:35:22.840Z,4.67
2022-12-18T06:37:49.494Z,4.87
2022-12-18T06:40:15.972Z,4.80
2022-12-18T06:42:42.446Z,5.00
2022-12-18T06:45:09.385Z,4.60
2022-12-18T06:47:35.885Z,4.73
2022-12-18T06:50:02.394Z,4.63
2022-12-18T06:52:29.265Z,5.37
2022-12-18T06:54:55.685Z,5.00
2022-12-18T06:57:22.324Z,5.03
2022-12-18T06:59:48.772Z,5.10
2022-12-18T07:02:15.589Z,5.53
2022-12-18T07:04:42.221Z,5.50
2022-12-18T07:07:08.667Z,4.87
2022-12-18T07:09:35.167Z,4.77
2022-12-18T07:12:01.658Z,4.80
2022-12-18T07:14:28.108Z,4.83
2022-12-18T07:16:54.930Z,5.20
2022-12-18T07:19:21.939Z,5.07
2022-12-18T07:21:48.377Z,4.93
2022-12-18T07:24:15.330Z,5.43
2022-12-18T07:26:42.120Z,4.80
2022-12-18T07:29:09.099Z,5.40
2022-12-18T07:31:35.612Z,5.47
2022-12-18T07:34:02.372Z,5.30
2022-12-18T07:36:28.906Z,5.50
2022-12-18T07:38:55.428Z,5.63
2022-12-18T07:41:22.132Z,5.33
2022-12-18T07:43:50.224Z,5.27
2022-12-18T07:46:17.269Z,5.23
2022-12-18T07:48:45.563Z,5.40
2022-12-18T07:51:18.485Z,5.70
2022-12-18T07:53:45.282Z,6.23
2022-12-18T07:56:30.565Z,5.90
2022-12-18T07:58:58.830Z,4.93
2022-12-18T08:01:25.569Z,5.20
2022-12-18T08:03:52.715Z,4.87
2022-12-18T08:06:22.411Z,5.30
2022-12-18T08:08:55.425Z,4.77
2022-12-18T08:11:24.271Z,5.47
2022-12-18T08:13:51.090Z,4.93
2022-12-18T08:16:18.381Z,5.40
2022-12-18T08:18:45.029Z,5.80
2022-12-18T08:21:16.157Z,4.83
2022-12-18T08:23:43.853Z,5.20
2022-12-18T08:26:12.042Z,4.63
2022-12-18T08:28:38.655Z,5.07
2022-12-18T08:31:05.628Z,4.97
2022-12-18T08:33:33.060Z,5.30
2022-12-18T08:36:00.605Z,4.70
2022-12-18T08:38:27.258Z,5.23
2022-12-18T08:41:05.313Z,4.57
2022-12-18T08:43:50.541Z,4.97
2022-12-18T08:46:18.096Z,4.90
2022-12-18T08:48:44.836Z,5.63
2022-12-18T08:51:11.475Z,5.27
2022-12-18T08:53:39.138Z,6.03
2022-12-18T08:56:06.452Z,5.17
2022-12-18T08:58:32.912Z,5.37
2022-12-18T09:01:05.000Z,5.17
2022-12-18T09:03:32.512Z,5.80
2022-12-18T09:05:59.107Z,5.87
2022-12-18T09:08:25.594Z,5.47
2022-12-18T09:10:52.211Z,5.20
2022-12-18T09:13:19.030Z,6.03
2022-12-18T09:15:48.206Z,5.13
2022-12-18T09:18:17.584Z,5.33
2022-12-18T09:20:45.028Z,5.53
2022-12-18T09:23:12.207Z,5.30
2022-12-18T09:25:39.199Z,5.67
2022-12-18T09:28:10.909Z,5.50
2022-12-18T09:30:42.306Z,5.43
2022-12-18T09:33:08.983Z,5.23
2022-12-18T09:35:42.575Z,5.10
2022-12-18T09:38:12.608Z,5.57
2022-12-18T09:40:50.281Z,5.50
2022-12-18T09:43:36.314Z,5.40
2022-12-18T09:46:07.379Z,5.23
2022-12-18T09:48:38.259Z,5.50
2022-12-18T09:51:13.439Z,5.50
2022-12-18T09:53:45.773Z,5.97
2022-12-18T09:56:19.782Z,5.90
2022-12-18T09:58:53.199Z,5.53
2022-12-18T10:01:24.102Z,5.20
2022-12-18T10:03:52.717Z,5.70
2022-12-18T10:06:33.702Z,5.27
2022-12-18T10:09:03.088Z,5.77
2022-12-18T10:11:41.439Z,5.50
2022-12-18T10:14:22.641Z,4.83
2022-12-18T10:17:07.366Z,5.33
2022-12-18T10:19:55.492Z,5.20
2022-12-18T10:22:51.271Z,4.77
2022-12-18T10:25:26.453Z,4.73
2022-12-18T10:27:57.422Z,4.47
2022-12-18T10:30:25.901Z,5.70
2022-12-18T10:32:52.627Z,5.00
2022-12-18T10:35:23.317Z,5.17
2022-12-18T10:38:22.780Z,5.00
2022-12-18T10:40:57.297Z,5.27
2022-12-18T10:43:27.001Z,5.33
2022-12-18T10:46:08.906Z,5.67
2022-12-18T10:48:57.845Z,4.97
2022-12-18T10:51:31.669Z,5.30
2022-12-18T10:54:06.356Z,5.53
2022-12-18T10:56:36.028Z,5.40
2022-12-18T10:59:05.960Z,5.43
2022-12-18T11:01:51.620Z,5.63
2022-12-18T11:04:24.230Z,5.73
2022-12-18T11:06:56.566Z,5.47
2022-12-18T11:09:25.525Z,5.33
2022-12-18T11:11:54.910Z,5.30
2022-12-18T11:14:46.883Z,4.90
2022-12-18T11:17:31.412Z,5.00
2022-12-18T11:20:00.375Z,5.27
2022-12-18T11:22:31.366Z,5.60
2022-12-18T11:25:30.717Z,5.87
2022-12-18T11:28:01.627Z,5.60
2022-12-18T11:30:31.458Z,5.17
2022-12-18T11:33:04.070Z,5.87
2022-12-18T11:35:49.588Z,5.63
2022-12-18T11:38:23.795Z,5.50
2022-12-18T11:40:57.467Z,6.77
2022-12-18T11:43:34.859Z,5.80
2022-12-18T11:46:19.341Z,4.93
2022-12-18T11:48:53.171Z,6.03
2022-12-18T11:51:31.071Z,6.03
2022-12-18T11:53:57.723Z,5.80
2022-12-18T11:56:33.120Z,5.90
2022-12-18T11:59:16.656Z,5.53
2022-12-18T12:01:59.924Z,5.63
2022-12-18T12:04:29.871Z,5.23
2022-12-18T12:07:13.811Z,5.57
2022-12-18T12:10:16.529Z,5.53
2022-12-18T12:13:11.672Z,5.57
2022-12-18T12:16:04.394Z,6.20
2022-12-18T12:18:46.001Z,5.97
2022-12-18T12:21:24.512Z,5.57
2022-12-18T12:24:06.431Z,6.87
2022-12-18T12:26:55.916Z,6.33
2022-12-18T12:29:30.231Z,6.10
2022-12-18T12:32:21.445Z,5.97
2022-12-18T12:35:07.750Z,6.20
2022-12-18T12:38:06.554Z,6.67
2022-12-18T12:40:52.670Z,6.47
2022-12-18T12:43:27.961Z,6.77
2022-12-18T12:46:01.675Z,6.50
2022-12-18T12:48:51.114Z,6.73
2022-12-18T12:51:29.356Z,6.97
2022-12-18T12:53:58.396Z,6.57
2022-12-18T12:56:35.964Z,6.60
2022-12-18T12:59:35.104Z,6.93
2022-12-18T13:02:24.177Z,7.30
2022-12-18T13:05:02.510Z,7.00
2022-12-18T13:07:36.329Z,7.07
2022-12-18T13:10:20.882Z,7.50
2022-12-18T13:12:58.436Z,6.90
2022-12-18T13:15:38.571Z,7.93
2022-12-18T13:18:12.592Z,7.70
2022-12-18T13:20:52.285Z,7.73
2022-12-18T13:23:24.703Z,7.57
2022-12-18T13:26:07.665Z,7.60
2022-12-18T13:28:37.473Z,7.67
2022-12-18T13:31:04.256Z,7.77
2022-12-18T13:33:30.867Z,8.07
2022-12-18T13:36:31.159Z,8.43
2022-12-18T13:39:10.191Z,8.10
2022-12-18T13:41:36.682Z,8.50
2022-12-18T13:44:14.017Z,8.70
2022-12-18T13:46:46.735Z,8.83
2022-12-18T13:49:13.168Z,8.63
2022-12-18T13:51:47.662Z,9.00
2022-12-18T13:54:36.116Z,8.57
2022-12-18T13:57:04.095Z,8.53
2022-12-18T13:59:41.012Z,8.43
2022-12-18T14:02:17.706Z,8.33
2022-12-18T14:04:47.505Z,9.10
2022-12-18T14:07:17.976Z,8.30
2022-12-18T14:09:50.043Z,8.07
2022-12-18T14:12:41.440Z,8.20
2022-12-18T14:15:37.686Z,9.20
2022-12-18T14:18:27.590Z,8.57
2022-12-18T14:20:58.457Z,8.97
2022-12-18T14:23:38.777Z,8.47
2022-12-18T14:26:22.235Z,9.77
2022-12-18T14:28:49.404Z,8.80
2022-12-18T14:31:20.809Z,9.73
2022-12-18T14:33:47.687Z,8.97
2022-12-18T14:36:18.973Z,9.60
2022-12-18T14:38:50.311Z,9.83
2022-12-18T14:41:18.525Z,9.47
2022-12-18T14:43:47.507Z,9.50
2022-12-18T14:46:38.066Z,9.70
2022-12-18T14:49:20.488Z,9.57
2022-12-18T14:51:53.821Z,9.73
2022-12-18T14:54:22.443Z,9.87
2022-12-18T14:56:57.975Z,9.20
2022-12-18T14:59:27.246Z,9.13
2022-12-18T15:02:02.473Z,9.70
2022-12-18T15:04:32.714Z,10.43
2022-12-18T15:07:17.416Z,10.13
2022-12-18T15:10:01.352Z,10.17
2022-12-18T15:12:44.696Z,10.17
2022-12-18T15:15:40.429Z,10.67
2022-12-18T15:18:11.433Z,10.53
2022-12-18T15:20:49.677Z,11.70
2022-12-18T15:23:47.237Z,10.60
2022-12-18T15:26:16.777Z,9.67
2022-12-18T15:28:52.028Z,9.43
2022-12-18T15:31:18.515Z,10.57
2022-12-18T15:34:01.786Z,11.20
2022-12-18T15:36:28.666Z,10.47
2022-12-18T15:38:59.504Z,11.20
2022-12-18T15:41:37.583Z,10.70
2022-12-18T15:44:22.394Z,10.93
2022-12-18T15:46:49.758Z,10.27
2022-12-18T15:49:16.331Z,10.97
2022-12-18T15:51:43.356Z,10.90
2022-12-18T15:54:15.065Z,11.27
2022-12-18T15:57:00.273Z,9.97
2022-12-18T15:59:27.462Z,11.87
2022-12-18T16:01:54.389Z,10.70
2022-12-18T16:04:22.757Z,11.40
2022-12-18T16:09:38.045Z,11.67
2022-12-18T16:12:04.943Z,11.67
2022-12-18T16:14:32.421Z,12.40
2022-12-18T16:17:01.860Z,12.07
2022-12-18T16:19:29.850Z,12.23
2022-12-18T16:21:58.263Z,11.70
2022-12-18T16:24:30.410Z,11.60
2022-12-18T16:27:00.212Z,12.43
2022-12-18T16:29:28.736Z,11.67
2022-12-18T16:31:56.100Z,12.20
2022-12-18T16:34:35.700Z,11.80
2022-12-18T16:37:08.333Z,12.23
2022-12-18T16:39:35.931Z,13.30
2022-12-18T16:42:17.528Z,12.83
2022-12-18T16:44:44.615Z,12.90
2022-12-18T16:47:13.257Z,13.10
2022-12-18T16:49:42.064Z,13.17
2022-12-18T16:52:08.578Z,14.33
2022-12-18T16:54:36.831Z,13.37
2022-12-18T16:57:05.494Z,12.60
2022-12-18T16:59:32.099Z,13.60
2022-12-18T17:01:58.731Z,13.60
2022-12-18T17:04:25.427Z,13.20
2022-12-18T17:06:53.854Z,14.60
2022-12-18T17:09:25.178Z,13.70
2022-12-18T17:11:53.242Z,14.03
2022-12-18T17:14:22.169Z,14.37
2022-12-18T17:17:07.221Z,14.03
2022-12-18T17:19:35.746Z,14.93
2022-12-18T17:22:02.575Z,13.90
2022-12-18T17:24:34.530Z,14.47
2022-12-18T17:27:02.330Z,13.43
2022-12-18T17:29:28.913Z,14.30
2022-12-18T17:31:55.419Z,15.07
2022-12-18T17:34:23.676Z,14.70
2022-12-18T17:36:50.281Z,15.17
2022-12-18T17:39:20.061Z,14.83
2022-12-18T17:41:46.912Z,15.03
2022-12-18T17:44:13.421Z,15.13
2022-12-18T17:46:40.189Z,15.10
2022-12-18T17:49:06.824Z,15.10
2022-12-18T17:51:33.928Z,13.90
2022-12-18T17:54:00.647Z,14.40
2022-12-18T17:56:27.356Z,15.70
2022-12-18T17:58:54.153Z,15.80
2022-12-18T18:01:23.882Z,15.43
2022-12-18T18:03:53.521Z,15.93
2022-12-18T18:06:20.973Z,15.33
2022-12-18T18:08:48.116Z,16.63
2022-12-18T18:11:36.937Z,16.83
2022-12-18T18:14:06.441Z,16.23
2022-12-18T18:16:44.613Z,15.40
2022-12-18T18:19:15.433Z,15.27
2022-12-18T18:21:43.919Z,16.03
2022-12-18T18:24:13.116Z,15.87
2022-12-18T18:26:41.656Z,17.20
2022-12-18T18:29:10.852Z,16.50
2022-12-18T18:31:40.820Z,16.27
2022-12-18T18:34:08.889Z,16.50
2022-12-18T18:36:35.532Z,16.63
2022-12-18T18:39:02.292Z,15.50
2022-12-18T18:41:30.609Z,15.90
2022-12-18T18:43:58.453Z,17.80
2022-12-18T18:46:25.873Z,15.87
2022-12-18T18:48:52.662Z,16.70
2022-12-18T18:51:20.671Z,16.27
2022-12-18T18:53:50.784Z,16.07
2022-12-18T18:56:56.173Z,15.53
2022-12-18T18:59:06.519Z,16.73
2022-12-18T19:01:33.366Z,16.90
2022-12-18T19:04:02.486Z,18.13
2022-12-18T19:06:29.792Z,18.30
2022-12-18T19:08:57.625Z,17.97
2022-12-18T19:11:44.532Z,18.17
2022-12-18T19:14:14.871Z,18.00
2022-12-18T19:16:42.441Z,17.77
2022-12-18T19:19:09.552Z,17.63
2022-12-18T19:21:38.259Z,18.53
2022-12-18T19:24:05.583Z,17.50
2022-12-18T19:26:32.566Z,17.17
2022-12-18T19:29:07.912Z,17.30
2022-12-18T19:31:36.983Z,17.50
2022-12-18T19:34:07.071Z,18.03
2022-12-18T19:36:36.720Z,18.17
2022-12-18T19:39:10.296Z,17.13
2022-12-18T19:41:36.932Z,16.53
2022-12-18T19:44:07.671Z,17.20
2022-12-18T19:46:35.704Z,15.83
2022-12-18T19:49:03.048Z,16.97
2022-12-18T19:51:31.371Z,17.27
2022-12-18T19:54:01.466Z,17.23
2022-12-18T19:56:32.271Z,17.27
2022-12-18T19:59:00.244Z,16.97
2022-12-18T20:01:28.903Z,17.10
2022-12-18T20:03:57.627Z,18.33
2022-12-18T20:06:33.001Z,18.27
2022-12-18T20:09:02.694Z,17.30
2022-12-18T20:11:32.944Z,17.90
2022-12-18T20:14:02.221Z,17.97
2022-12-18T20:16:29.433Z,18.87
2022-12-18T20:18:57.680Z,19.23
2022-12-18T20:21:25.499Z,17.47
2022-12-18T20:23:52.716Z,18.13
2022-12-18T20:26:19.475Z,17.23
2022-12-18T20:28:46.372Z,18.10
2022-12-18T20:31:14.165Z,18.10
2022-12-18T20:33:42.521Z,17.83
2022-12-18T20:36:16.001Z,17.47
2022-12-18T20:38:45.647Z,17.07
2022-12-18T20:41:18.908Z,18.57
2022-12-18T20:43:45.920Z,18.20
2022-12-18T20:46:14.816Z,18.10
2022-12-18T20:48:42.446Z,18.97
2022-12-18T20:51:20.594Z,17.67
2022-12-18T20:53:47.654Z,19.17
2022-12-18T20:56:21.587Z,18.20
2022-12-18T20:58:50.040Z,17.73
2022-12-18T21:01:19.831Z,18.80
2022-12-18T21:03:47.582Z,17.87
2022-12-18T21:06:16.882Z,16.90
2022-12-18T21:08:44.044Z,18.07
2022-12-18T21:11:35.150Z,18.33
2022-12-18T21:14:03.919Z,18.17
2022-12-18T21:16:30.677Z,18.17
2022-12-18T21:18:57.549Z,19.53
2022-12-18T21:21:26.590Z,17.90
2022-12-18T21:23:53.985Z,18.13
2022-12-18T21:26:22.209Z,18.13
2022-12-18T21:28:53.379Z,19.23
2022-12-18T21:31:20.013Z,18.20
2022-12-18T21:33:46.629Z,17.57
2022-12-18T21:36:14.886Z,18.93
2022-12-18T21:38:41.529Z,18.43
2022-12-18T21:41:10.314Z,17.83
2022-12-18T21:43:55.970Z,18.53
2022-12-18T21:46:22.894Z,17.37
2022-12-18T21:48:49.499Z,18.40
2022-12-18T21:51:16.231Z,18.73
2022-12-18T21:53:43.086Z,18.27
2022-12-18T21:56:09.676Z,17.07
2022-12-18T21:58:37.928Z,18.90
2022-12-18T22:01:05.298Z,16.70
2022-12-18T22:03:32.262Z,18.17
2022-12-18T22:06:08.863Z,18.43
2022-12-18T22:08:36.148Z,18.73
2022-12-18T22:11:08.238Z,18.37
2022-12-18T22:13:34.924Z,17.07
2022-12-18T22:16:01.531Z,17.50
2022-12-18T22:18:28.693Z,16.67
2022-12-18T22:21:05.852Z,17.73
2022-12-18T22:23:33.367Z,18.33
2022-12-18T22:26:00.161Z,17.90
2022-12-18T22:28:45.026Z,18.23
2022-12-18T22:31:11.809Z,17.97
2022-12-18T22:33:38.566Z,18.47
2022-12-18T22:36:06.878Z,18.63
2022-12-18T22:38:33.889Z,18.97
2022-12-18T22:41:00.473Z,17.83
2022-12-18T22:43:26.999Z,18.93
2022-12-18T22:45:53.994Z,18.57
2022-12-18T22:48:21.283Z,17.80
2022-12-18T22:50:47.964Z,18.87
2022-12-18T22:53:16.683Z,18.53
2022-12-18T22:55:43.262Z,19.03
2022-12-18T22:58:09.883Z,18.27
2022-12-18T23:00:37.248Z,19.10
2022-12-18T23:03:04.167Z,19.10
2022-12-18T23:05:33.797Z,19.20
2022-12-18T23:08:00.979Z,19.30
2022-12-18T23:10:27.921Z,20.17
2022-12-18T23:12:54.640Z,18.80
2022-12-18T23:15:27.253Z,18.93
2022-12-18T23:17:58.596Z,19.67
2022-12-18T23:20:27.331Z,19.87
2022-12-18T23:22:54.249Z,20.73
2022-12-18T23:25:20.779Z,18.47
2022-12-18T23:27:47.393Z,18.93
2022-12-18T23:30:14.131Z,16.90
2022-12-18T23:32:41.279Z,20.43
2022-12-18T23:35:08.318Z,18.43
2022-12-18T23:37:58.967Z,18.70
2022-12-18T23:40:23.264Z,18.80
2022-12-18T23:42:50.175Z,19.80
2022-12-18T23:45:18.062Z,18.50
2022-12-18T23:47:45.443Z,20.13
2022-12-18T23:50:15.171Z,19.17
2022-12-18T23:52:41.918Z,20.03
2022-12-18T23:55:11.521Z,19.00
2022-12-18T23:57:38.424Z,19.07
